地図

経路データ

SID SEASON NUMBER BASIN SUBBASIN NAME ISO_TIME NATURE LAT LON WMO_WIND WMO_PRES WMO_AGENCY TRACK_TYPE DIST2LAND LANDFALL IFLAG USA_AGENCY USA_ATCF_ID USA_LAT USA_LON USA_RECORD USA_STATUS USA_WIND USA_PRES USA_SSHS USA_R34_NE USA_R34_SE USA_R34_SW USA_R34_NW USA_R50_NE USA_R50_SE USA_R50_SW USA_R50_NW USA_R64_NE USA_R64_SE USA_R64_SW USA_R64_NW USA_POCI USA_ROCI USA_RMW USA_EYE TOKYO_LAT TOKYO_LON TOKYO_GRADE TOKYO_WIND TOKYO_PRES TOKYO_R50_DIR TOKYO_R50_LONG TOKYO_R50_SHORT TOKYO_R30_DIR TOKYO_R30_LONG TOKYO_R30_SHORT TOKYO_LAND CMA_LAT CMA_LON CMA_CAT CMA_WIND CMA_PRES HKO_LAT HKO_LON HKO_CAT HKO_WIND HKO_PRES NEWDELHI_LAT NEWDELHI_LON NEWDELHI_GRADE NEWDELHI_WIND NEWDELHI_PRES NEWDELHI_CI NEWDELHI_DP NEWDELHI_POCI REUNION_LAT REUNION_LON REUNION_TYPE REUNION_WIND REUNION_PRES REUNION_TNUM REUNION_CI REUNION_RMW REUNION_R34_NE REUNION_R34_SE REUNION_R34_SW REUNION_R34_NW REUNION_R50_NE REUNION_R50_SE REUNION_R50_SW REUNION_R50_NW REUNION_R64_NE REUNION_R64_SE REUNION_R64_SW REUNION_R64_NW BOM_LAT BOM_LON BOM_TYPE BOM_WIND BOM_PRES BOM_TNUM BOM_CI BOM_RMW BOM_R34_NE BOM_R34_SE BOM_R34_SW BOM_R34_NW BOM_R50_NE BOM_R50_SE BOM_R50_SW BOM_R50_NW BOM_R64_NE BOM_R64_SE BOM_R64_SW BOM_R64_NW BOM_ROCI BOM_POCI BOM_EYE BOM_POS_METHOD BOM_PRES_METHOD NADI_LAT NADI_LON NADI_CAT NADI_WIND NADI_PRES WELLINGTON_LAT WELLINGTON_LON WELLINGTON_WIND WELLINGTON_PRES DS824_LAT DS824_LON DS824_STAGE DS824_WIND DS824_PRES TD9636_LAT TD9636_LON TD9636_STAGE TD9636_WIND TD9636_PRES TD9635_LAT TD9635_LON TD9635_WIND TD9635_PRES TD9635_ROCI NEUMANN_LAT NEUMANN_LON NEUMANN_CLASS NEUMANN_WIND NEUMANN_PRES MLC_LAT MLC_LON MLC_CLASS MLC_WIND MLC_PRES USA_GUST BOM_GUST BOM_GUST_PER REUNION_GUST REUNION_GUST_PER USA_SEAHGT USA_SEARAD_NE USA_SEARAD_SE USA_SEARAD_SW USA_SEARAD_NW STORM_SPEED STORM_DIR
1972241N24086 1972 83 NI BB NOT_NAMED 1972-08-28 03:00:00 NR 23.7000 85.6000 main 0 0 __________O___ -1 23.7000 85.6000 1 9 284
1972241N24086 1972 83 NI BB NOT_NAMED 1972-08-28 06:00:00 TS 23.8130 85.1138 main 0 0 O________OP___ jtwc_io IO081972 23.8000 85.1000 -1 23.8000 85.1000 TC 25 23.8259 85.1275 1 9 287
1972241N24086 1972 83 NI BB NOT_NAMED 1972-08-28 09:00:00 TS 23.9634 84.6589 main 0 0 P________PP___ IO081972 23.9802 84.6629 -1 23.9802 84.6629 TC 25 23.9409 84.6536 1 9 287
1972241N24086 1972 83 NI BB NOT_NAMED 1972-08-28 12:00:00 TS 24.0742 84.1911 main 0 0 O________OP___ jtwc_io IO081972 24.1000 84.2000 -1 24.1000 84.2000 TC 25 24.0355 84.1778 1 9 280
1972241N24086 1972 83 NI BB NOT_NAMED 1972-08-28 15:00:00 TS 24.1150 83.6998 main 0 0 P________PO___ IO081972 24.1225 83.6998 -1 24.1225 83.6998 TC 25 24.1000 83.7000 1 9 272
1972241N24086 1972 83 NI BB NOT_NAMED 1972-08-28 18:00:00 TS 24.1095 83.2073 main 0 0 O________OP___ jtwc_io IO081972 24.1000 83.2000 -1 24.1000 83.2000 TC 25 24.1286 83.2220 1 9 270
1972241N24086 1972 83 NI BB NOT_NAMED 1972-08-28 21:00:00 TS 24.1099 82.7415 main 0 0 P________PP___ IO081972 24.0999 82.7350 -1 24.0999 82.7350 TC 25 24.1299 82.7544 1 8 270
1972241N24086 1972 83 NI BB NOT_NAMED 1972-08-29 00:00:00 TS 24.1054 82.3032 main 0 0 O________OP___ jtwc_io IO081972 24.1000 82.3000 -1 24.1000 82.3000 TC 25 24.1162 82.3096 1 8 269
1972241N24086 1972 83 NI BB NOT_NAMED 1972-08-29 03:00:00 TS 24.1000 81.8850 main 0 0 P________PO___ IO081972 24.0999 81.8775 -1 24.0999 81.8775 TC 25 24.1000 81.9000 1 7 270
1972241N24086 1972 83 NI BB NOT_NAMED 1972-08-29 06:00:00 TS 24.0999 81.5049 main 0 0 O________OP___ jtwc_io IO081972 24.1000 81.5000 -1 24.1000 81.5000 TC 25 24.0997 81.5147 1 6 270
1972241N24086 1972 83 NI BB NOT_NAMED 1972-08-29 09:00:00 TS 24.0998 81.1742 main 0 0 P________PP___ IO081972 24.0999 81.1775 -1 24.0999 81.1775 TC 25 24.0996 81.1675 1 6 270
1972241N24086 1972 83 NI BB NOT_NAMED 1972-08-29 12:00:00 TS 24.0999 80.8872 main 0 0 O________OP___ jtwc_io IO081972 24.1000 80.9000 -1 24.1000 80.9000 TC 25 24.0998 80.8616 1 5 270
1972241N24086 1972 83 NI BB NOT_NAMED 1972-08-29 15:00:00 TS 24.1000 80.6183 main 0 0 P________PO___ IO081972 24.1000 80.6275 -1 24.1000 80.6275 TC 25 24.1000 80.6000 1 4 269
1972241N24086 1972 83 NI BB NOT_NAMED 1972-08-29 18:00:00 TS 24.0930 80.3993 main 0 0 O________OP___ jtwc_io IO081972 24.1000 80.4000 -1 24.1000 80.4000 TC 25 24.0791 80.3979 1 3 267
1972241N24086 1972 83 NI BB NOT_NAMED 1972-08-29 21:00:00 TS 24.0822 80.2448 main 0 0 P________PP___ IO081972 24.0924 80.2500 -1 24.0924 80.2500 TC 25 24.0618 80.2346 1 3 269
1972241N24086 1972 83 NI BB NOT_NAMED 1972-08-30 00:00:00 TS 24.0879 80.0930 main 0 0 O________OP___ jtwc_io IO081972 24.1000 80.1000 -1 24.1000 80.1000 TC 25 24.0636 80.0790 1 3 276
1972241N24086 1972 83 NI BB NOT_NAMED 1972-08-30 03:00:00 TS 24.1183 79.8766 main 0 0 P________PO___ IO081972 24.1275 79.8649 -1 24.1275 79.8649 TC 25 24.1000 79.9000 1 5 284
1972241N24086 1972 83 NI BB NOT_NAMED 1972-08-30 06:00:00 TS 24.1978 79.6099 main 0 0 O________OP___ jtwc_io IO081972 24.2000 79.6000 -1 24.2000 79.6000 TC 25 24.1935 79.6298 1 5 294
1972241N24086 1972 83 NI BB NOT_NAMED 1972-08-30 09:00:00 TS 24.3351 79.3453 main 0 0 P________PP___ IO081972 24.3425 79.3501 -1 24.3425 79.3501 TC 25 24.3205 79.3357 1 6 301
1972241N24086 1972 83 NI BB NOT_NAMED 1972-08-30 12:00:00 TS 24.4874 79.0829 main 0 0 O________OP___ jtwc_io IO081972 24.5000 79.1000 -1 24.5000 79.1000 TC 25 24.4622 79.0486 1 6 299
1972241N24086 1972 83 NI BB NOT_NAMED 1972-08-30 15:00:00 TS 24.6050 78.8183 main 0 0 P________PO___ IO081972 24.6075 78.8275 -1 24.6075 78.8275 TC 25 24.6000 78.8000 1 5 297
1972241N24086 1972 83 NI BB NOT_NAMED 1972-08-30 18:00:00 TS 24.7078 78.6054 main 0 0 O________OP___ jtwc_io IO081972 24.7000 78.6000 -1 24.7000 78.6000 TC 25 24.7194 78.6134 1 4 303
1972241N24086 1972 83 NI BB NOT_NAMED 1972-08-30 21:00:00 TS 24.8080 78.4741 main 0 0 P________PP___ IO081972 24.7975 78.4700 -1 24.7975 78.4700 TC 25 24.8222 78.4796 1 3 316
1972241N24086 1972 83 NI BB NOT_NAMED 1972-08-31 00:00:00 TS 24.9069 78.3905 main 0 0 O________OP___ jtwc_io IO081972 24.9000 78.4000 -1 24.9000 78.4000 TC 25 24.9138 78.3810 1 2 320
1972241N24086 1972 83 NI BB NOT_NAMED 1972-08-31 03:00:00 NR 25.0000 78.3000 main 0 __________O___ IO081972 -1 TC 25.0000 78.3000 1 2 318

IBTrACS Databaseについて

本データベースは、米国NOAAが公開する1842年以降の世界の熱帯低気圧のベストトラックデータアーカイブInternational Best Track Archive for Climate Stewardship (IBTrACS)を、ウェブで閲覧しやすい形式に変換したものです。

最終更新日:2021-10-21